Time;durP1;ratioP1;P1;durP2;ratioP2;P2;SDS_P1;SDS_P2;PMS_P1;PMS_P2;Temp;Humidity;BMP_temperature;BMP_pressure;BME280_temperature;BME280_humidity;BME280_pressure;Samples;Min_cycle;Max_cycle;Signal;HPM_P1;HPM_P2
2024/03/01 00:00:22;;;;;;;125.90;76.50;;;;;;;7.50;100.00;98609.98;109236;1254;65066;-70
2024/03/01 00:03:09;;;;;;;126.90;79.40;;;;;;;7.51;100.00;98614.20;109241;1254;59816;-71
2024/03/01 00:05:36;;;;;;;130.10;79.10;;;;;;;7.51;100.00;98613.99;109239;1254;59798;-71
2024/03/01 00:08:02;;;;;;;134.10;80.90;;;;;;;7.51;100.00;98612.95;109272;1254;66699;-71
2024/03/01 00:10:29;;;;;;;131.10;79.20;;;;;;;7.53;100.00;98606.11;109279;1254;61130;-70
2024/03/01 00:12:56;;;;;;;132.10;81.40;;;;;;;7.55;100.00;98605.27;109264;1254;65116;-71
2024/03/01 00:15:22;;;;;;;124.20;73.30;;;;;;;7.55;100.00;98602.77;109251;1254;59790;-71
2024/03/01 00:17:49;;;;;;;133.40;80.70;;;;;;;7.56;100.00;98601.45;109276;1254;59957;-71
2024/03/01 00:20:15;;;;;;;128.20;79.40;;;;;;;7.58;100.00;98601.90;109255;1254;66860;-71
2024/03/01 00:22:42;;;;;;;137.00;80.90;;;;;;;7.57;100.00;98600.17;109075;1254;59890;-72
2024/03/01 00:25:08;;;;;;;141.90;86.30;;;;;;;7.58;100.00;98598.20;109268;1254;65190;-72
2024/03/01 00:27:35;;;;;;;139.80;82.20;;;;;;;7.57;100.00;98596.30;109241;1254;59772;-72
2024/03/01 00:30:03;;;;;;;136.20;78.10;;;;;;;7.56;100.00;98589.48;109298;1254;60089;-72
2024/03/01 00:32:32;;;;;;;140.60;81.70;;;;;;;7.55;100.00;98591.98;109077;1254;66567;-72
2024/03/01 00:34:58;;;;;;;140.30;81.40;;;;;;;7.55;100.00;98594.10;109314;1254;61010;-72
2024/03/01 00:37:25;;;;;;;135.90;77.70;;;;;;;7.55;100.00;98588.30;109088;1254;65074;-72
2024/03/01 00:39:52;;;;;;;150.00;83.20;;;;;;;7.54;100.00;98585.72;109284;1254;59864;-73
2024/03/01 00:42:18;;;;;;;143.50;80.70;;;;;;;7.53;100.00;98582.39;109298;1254;59759;-72
2024/03/01 00:44:45;;;;;;;138.50;78.00;;;;;;;7.53;100.00;98583.48;109306;1254;67873;-72
2024/03/01 00:47:11;;;;;;;158.50;81.40;;;;;;;7.51;100.00;98578.29;108996;1254;61402;-72
2024/03/01 00:49:38;;;;;;;151.90;80.70;;;;;;;7.50;100.00;98575.89;109235;1254;65080;-72
2024/03/01 00:52:05;;;;;;;151.40;81.40;;;;;;;7.49;100.00;98574.14;109283;1254;59726;-72
2024/03/01 00:54:31;;;;;;;156.70;76.50;;;;;;;7.50;100.00;98569.52;109283;1254;59836;-72
2024/03/01 00:56:58;;;;;;;158.30;81.20;;;;;;;7.50;100.00;98568.77;109300;1254;67837;-70
2024/03/01 00:59:25;;;;;;;155.20;76.10;;;;;;;7.49;100.00;98564.77;109285;1254;59875;-72
2024/03/01 01:01:51;;;;;;;164.70;78.30;;;;;;;7.49;100.00;98561.41;109234;1254;63992;-72
2024/03/01 01:04:18;;;;;;;146.30;78.30;;;;;;;7.47;100.00;98553.91;109261;1254;59982;-72
2024/03/01 01:06:44;;;;;;;144.60;79.90;;;;;;;7.47;100.00;98555.34;109285;1254;59821;-72
2024/03/01 01:09:11;;;;;;;165.50;83.70;;;;;;;7.47;100.00;98555.70;109291;1254;67490;-71
2024/03/01 01:11:38;;;;;;;162.00;82.70;;;;;;;7.47;100.00;98549.35;109265;1254;61021;-71
2024/03/01 01:14:07;;;;;;;178.30;82.90;;;;;;;7.46;100.00;98545.14;109254;1254;65036;-71
2024/03/01 01:16:34;;;;;;;151.10;78.60;;;;;;;7.47;100.00;98541.20;109280;1254;59819;-71
2024/03/01 01:19:02;;;;;;;171.70;77.70;;;;;;;7.47;100.00;98540.83;109298;1254;59870;-71
2024/03/01 01:21:31;;;;;;;164.90;81.30;;;;;;;7.47;100.00;98533.93;109295;1254;67817;-71
2024/03/01 01:23:58;;;;;;;146.40;82.40;;;;;;;7.47;100.00;98532.86;109253;1254;60111;-71
2024/03/01 01:26:24;;;;;;;162.80;84.80;;;;;;;7.47;100.00;98538.70;109253;1254;65567;-71
2024/03/01 01:28:53;;;;;;;204.70;83.80;;;;;;;7.47;100.00;98535.33;108998;1254;59907;-71
2024/03/01 01:31:20;;;;;;;183.50;79.20;;;;;;;7.47;100.00;98538.70;109297;1254;59753;-72
2024/03/01 01:33:47;;;;;;;235.10;79.30;;;;;;;7.47;100.00;98534.85;109294;1254;66819;-70
2024/03/01 01:36:13;;;;;;;187.80;78.30;;;;;;;7.47;100.00;98526.55;109278;1254;61001;-71
2024/03/01 01:38:40;;;;;;;229.20;83.00;;;;;;;7.46;100.00;98527.10;109284;1254;65081;-71
2024/03/01 01:41:06;;;;;;;240.80;79.90;;;;;;;7.46;100.00;98521.63;109267;1254;59871;-71
2024/03/01 01:43:35;;;;;;;211.40;76.20;;;;;;;7.46;100.00;98517.09;109308;1254;59793;-71
2024/03/01 01:46:02;;;;;;;202.50;76.80;;;;;;;7.45;100.00;98513.03;109309;1254;65518;-72
2024/03/01 01:48:28;;;;;;;249.10;79.90;;;;;;;7.46;100.00;98506.29;109313;1254;61161;-71
2024/03/01 01:50:56;;;;;;;194.50;75.70;;;;;;;7.45;100.00;98504.23;109313;1254;64756;-71
2024/03/01 01:53:22;;;;;;;216.20;78.50;;;;;;;7.44;100.00;98500.75;109262;1254;59769;-71
2024/03/01 01:55:50;;;;;;;219.50;77.40;;;;;;;7.43;100.00;98494.80;109309;1254;59841;-71
2024/03/01 01:58:17;;;;;;;235.30;79.00;;;;;;;7.41;100.00;98493.35;109072;1254;66862;-71
2024/03/01 02:00:44;;;;;;;202.80;76.60;;;;;;;7.39;100.00;98491.18;109281;1254;59967;-71
2024/03/01 02:03:11;;;;;;;221.00;78.10;;;;;;;7.37;100.00;98491.46;108964;1254;65087;-70
2024/03/01 02:05:39;;;;;;;214.20;77.50;;;;;;;7.35;100.00;98492.52;109314;1254;59736;-71
2024/03/01 02:08:06;;;;;;;283.30;77.60;;;;;;;7.33;100.00;98497.17;109304;1254;59764;-72
2024/03/01 02:10:33;;;;;;;254.50;78.60;;;;;;;7.34;100.00;98495.05;109315;1254;67735;-71
2024/03/01 02:13:02;;;;;;;262.50;77.30;;;;;;;7.33;100.00;98491.52;109292;1254;60764;-71
2024/03/01 02:15:29;;;;;;;256.70;77.10;;;;;;;7.33;100.00;98489.44;109238;1254;65213;-70
2024/03/01 02:17:57;;;;;;;253.60;76.30;;;;;;;7.32;100.00;98482.75;109268;1254;59956;-71
2024/03/01 02:20:27;;;;;;;257.80;77.30;;;;;;;7.31;100.00;98484.05;109313;1254;59789;-71
2024/03/01 02:22:58;;;;;;;259.30;78.60;;;;;;;7.32;100.00;98482.61;109317;1254;67690;-70
2024/03/01 02:25:24;;;;;;;244.40;77.50;;;;;;;7.31;100.00;98476.80;109040;1254;60246;-70
2024/03/01 02:27:51;;;;;;;200.10;77.20;;;;;;;7.31;100.00;98474.68;109277;1254;64862;-70
2024/03/01 02:30:18;;;;;;;210.90;75.90;;;;;;;7.30;100.00;98469.61;109267;1254;59808;-72
2024/03/01 02:32:45;;;;;;;210.90;77.50;;;;;;;7.29;100.00;98463.86;109251;1254;59847;-70
2024/03/01 02:35:12;;;;;;;189.90;73.40;;;;;;;7.26;100.00;98451.33;109276;1254;68364;-70
2024/03/01 02:37:39;;;;;;;217.10;75.50;;;;;;;7.22;100.00;98448.55;109288;1254;61482;-70
2024/03/01 02:40:06;;;;;;;212.40;77.20;;;;;;;7.18;100.00;98447.94;109277;1254;63991;-71
2024/03/01 02:42:33;;;;;;;223.30;76.40;;;;;;;7.16;100.00;98446.83;109293;1254;59823;-70
2024/03/01 02:45:02;;;;;;;250.00;77.00;;;;;;;7.16;100.00;98447.16;109295;1254;60087;-71
2024/03/01 02:47:29;;;;;;;195.50;75.70;;;;;;;7.16;100.00;98440.98;109256;1254;68014;-72
2024/03/01 02:49:56;;;;;;;229.00;76.90;;;;;;;7.16;100.00;98435.71;108989;1254;60589;-70
2024/03/01 02:52:22;;;;;;;234.10;79.80;;;;;;;7.17;100.00;98429.45;109005;1254;63307;-71
2024/03/01 02:54:49;;;;;;;255.30;77.40;;;;;;;7.18;100.00;98430.47;109254;1254;59702;-73
2024/03/01 02:57:15;;;;;;;209.80;75.40;;;;;;;7.18;100.00;98428.34;109300;1254;60060;-71
2024/03/01 02:59:42;;;;;;;188.80;73.10;;;;;;;7.17;100.00;98423.30;109308;1254;66715;-70
2024/03/01 03:02:09;;;;;;;236.30;80.60;;;;;;;7.15;100.00;98413.83;109316;1254;60898;-70
2024/03/01 03:04:35;;;;;;;209.30;78.50;;;;;;;7.13;100.00;98412.19;109290;1254;64023;-70
2024/03/01 03:07:02;;;;;;;227.70;82.20;;;;;;;7.11;100.00;98409.54;109263;1254;59883;-70
2024/03/01 03:09:29;;;;;;;196.20;82.10;;;;;;;7.08;100.00;98411.45;109275;1254;59812;-70
2024/03/01 03:11:55;;;;;;;235.20;81.30;;;;;;;7.08;100.00;98412.52;109328;1254;66755;-71
2024/03/01 03:14:22;;;;;;;274.90;84.50;;;;;;;7.09;100.00;98411.20;109293;1254;60090;-71
2024/03/01 03:16:50;;;;;;;186.80;84.10;;;;;;;7.10;100.00;98409.73;109278;1254;64089;-71
2024/03/01 03:19:17;;;;;;;198.50;80.60;;;;;;;7.11;100.00;98413.75;109272;1254;59800;-70
2024/03/01 03:21:44;;;;;;;223.60;82.40;;;;;;;7.13;100.00;98412.39;109274;1254;59798;-71
2024/03/01 03:24:11;;;;;;;185.50;82.70;;;;;;;7.14;100.00;98408.45;109015;1254;67033;-71
2024/03/01 03:26:37;;;;;;;220.10;82.70;;;;;;;7.15;100.00;98404.67;109321;1254;60810;-72
2024/03/01 03:29:04;;;;;;;212.60;84.50;;;;;;;7.14;100.00;98402.96;109279;1254;63739;-72
2024/03/01 03:31:31;;;;;;;183.00;76.90;;;;;;;7.13;100.00;98410.99;109296;1254;60174;-72
2024/03/01 03:33:58;;;;;;;182.70;77.90;;;;;;;7.12;100.00;98410.86;109279;1254;60010;-71
2024/03/01 03:36:24;;;;;;;182.70;76.70;;;;;;;7.12;100.00;98412.45;109021;1254;65563;-71
2024/03/01 03:38:51;;;;;;;183.40;79.50;;;;;;;7.11;100.00;98414.25;109252;1254;59944;-71
2024/03/01 03:41:18;;;;;;;174.30;79.60;;;;;;;7.11;100.00;98419.91;109260;1254;64865;-71
2024/03/01 03:43:44;;;;;;;175.10;76.70;;;;;;;7.12;100.00;98412.64;109264;1254;59930;-71
2024/03/01 03:46:11;;;;;;;163.00;79.70;;;;;;;7.12;100.00;98412.12;109301;1254;59830;-70
2024/03/01 03:48:38;;;;;;;170.50;74.00;;;;;;;7.13;100.00;98411.86;109290;1254;66966;-71
2024/03/01 03:51:04;;;;;;;155.50;75.00;;;;;;;7.14;100.00;98422.41;109284;1254;60422;-71
2024/03/01 03:53:31;;;;;;;158.80;73.30;;;;;;;7.13;100.00;98428.09;109268;1254;64040;-70
2024/03/01 03:55:57;;;;;;;129.80;72.00;;;;;;;7.13;100.00;98432.71;109273;1254;59786;-71
2024/03/01 03:58:24;;;;;;;136.90;72.40;;;;;;;7.12;100.00;98431.89;109302;1254;60631;-70
2024/03/01 04:00:51;;;;;;;180.40;77.50;;;;;;;7.12;100.00;98431.00;109277;1254;68249;-71
2024/03/01 04:03:17;;;;;;;194.40;78.30;;;;;;;7.12;100.00;98426.77;109294;1254;60125;-71
2024/03/01 04:05:44;;;;;;;162.50;75.30;;;;;;;7.11;100.00;98426.81;109025;1254;65097;-70
2024/03/01 04:08:10;;;;;;;193.80;75.20;;;;;;;7.11;100.00;98423.09;109010;1254;59887;-70
2024/03/01 04:10:37;;;;;;;215.90;78.30;;;;;;;7.11;100.00;98426.63;109253;1254;60032;-70
2024/03/01 04:13:05;;;;;;;195.00;77.30;;;;;;;7.11;100.00;98429.99;109300;1254;66711;-71
2024/03/01 04:15:32;;;;;;;165.20;90.60;;;;;;;7.11;100.00;98436.17;109300;1254;60598;-71
2024/03/01 04:17:59;;;;;;;174.90;95.90;;;;;;;7.11;100.00;98442.89;109296;1254;64004;-71
2024/03/01 04:20:27;;;;;;;149.70;82.10;;;;;;;7.12;100.00;98443.90;109268;1254;59914;-71
2024/03/01 04:22:53;;;;;;;182.40;77.00;;;;;;;7.11;100.00;98434.41;109282;1254;59762;-71
2024/03/01 04:25:23;;;;;;;168.90;76.80;;;;;;;7.08;100.00;98433.17;109320;1254;66790;-71
2024/03/01 04:27:50;;;;;;;155.60;76.00;;;;;;;7.05;100.00;98431.97;109276;1256;60036;-71
2024/03/01 04:30:17;;;;;;;141.00;72.00;;;;;;;7.03;100.00;98427.98;109273;1254;65079;-71
2024/03/01 04:32:43;;;;;;;151.10;73.30;;;;;;;7.03;100.00;98425.02;109289;1254;59760;-72
2024/03/01 04:35:11;;;;;;;132.50;70.00;;;;;;;7.02;100.00;98421.16;109300;1254;59841;-71
2024/03/01 04:37:38;;;;;;;136.30;70.10;;;;;;;6.99;100.00;98418.36;109296;1254;67896;-72
2024/03/01 04:40:05;;;;;;;176.90;71.80;;;;;;;6.96;100.00;98415.53;109287;1254;60979;-72
2024/03/01 04:42:31;;;;;;;144.60;72.90;;;;;;;6.92;100.00;98421.09;109215;1256;65242;-72
2024/03/01 04:44:58;;;;;;;157.30;72.20;;;;;;;6.91;100.00;98424.36;109196;1255;60136;-72
2024/03/01 04:47:25;;;;;;;146.10;68.60;;;;;;;6.88;100.00;98423.10;109233;1255;59760;-72
2024/03/01 04:49:51;;;;;;;123.40;69.80;;;;;;;6.84;100.00;98424.26;109233;1255;67874;-72
2024/03/01 04:52:18;;;;;;;135.80;68.60;;;;;;;6.82;100.00;98423.67;109224;1256;60714;-71
2024/03/01 04:54:46;;;;;;;168.30;72.20;;;;;;;6.79;100.00;98419.26;109041;1256;64105;-71
2024/03/01 04:57:12;;;;;;;158.20;69.60;;;;;;;6.75;100.00;98417.88;109200;1255;59817;-72
2024/03/01 04:59:39;;;;;;;167.90;71.90;;;;;;;6.76;100.00;98416.93;109223;1255;59852;-71
2024/03/01 05:02:06;;;;;;;155.90;73.30;;;;;;;6.77;100.00;98410.89;109208;1255;69060;-72
2024/03/01 05:04:34;;;;;;;164.30;74.40;;;;;;;6.76;100.00;98411.10;109212;1255;60941;-70
2024/03/01 05:07:02;;;;;;;161.40;75.60;;;;;;;6.76;100.00;98406.15;109203;1255;65078;-70
2024/03/01 05:09:29;;;;;;;168.40;76.70;;;;;;;6.76;100.00;98405.61;109178;1255;59778;-70
2024/03/01 05:11:57;;;;;;;175.30;73.70;;;;;;;6.77;100.00;98404.54;109206;1255;59838;-70
2024/03/01 05:14:23;;;;;;;188.30;72.60;;;;;;;6.77;100.00;98408.40;109215;1255;67881;-71
2024/03/01 05:16:50;;;;;;;149.50;74.60;;;;;;;6.77;100.00;98416.02;109193;1255;60809;-71
2024/03/01 05:19:16;;;;;;;165.30;80.00;;;;;;;6.76;100.00;98419.95;109228;1255;64885;-72
2024/03/01 05:21:43;;;;;;;189.30;80.50;;;;;;;6.74;100.00;98418.13;109210;1255;59854;-71
2024/03/01 05:24:10;;;;;;;171.10;73.80;;;;;;;6.73;100.00;98416.45;109193;1255;60104;-71
2024/03/01 05:26:37;;;;;;;135.30;73.50;;;;;;;6.72;100.00;98423.55;108984;1256;69001;-71
2024/03/01 05:29:04;;;;;;;140.20;71.50;;;;;;;6.74;100.00;98432.44;109192;1255;61013;-70
2024/03/01 05:31:45;;;;;;;160.30;73.00;;;;;;;6.74;100.00;98442.32;109189;1255;65084;-71
2024/03/01 05:34:12;;;;;;;129.90;68.90;;;;;;;6.75;100.00;98438.22;109200;1255;60020;-70
2024/03/01 05:36:38;;;;;;;186.50;74.40;;;;;;;6.77;100.00;98435.41;109199;1255;60032;-71
2024/03/01 05:39:15;;;;;;;146.10;69.50;;;;;;;6.78;100.00;98430.94;109239;1255;67863;-72
2024/03/01 05:41:45;;;;;;;163.20;77.30;;;;;;;6.78;100.00;98428.45;109178;1256;61178;-71
2024/03/01 05:44:16;;;;;;;156.90;73.60;;;;;;;6.76;100.00;98434.09;108958;1255;63826;-72
2024/03/01 05:46:43;;;;;;;175.50;70.20;;;;;;;6.72;100.00;98436.60;109181;1255;60279;-71
2024/03/01 05:49:10;;;;;;;132.40;67.90;;;;;;;6.69;100.00;98441.02;109223;1255;59998;-71
2024/03/01 05:51:37;;;;;;;128.80;67.70;;;;;;;6.71;100.00;98443.73;109228;1255;67801;-71
2024/03/01 05:54:04;;;;;;;117.90;64.80;;;;;;;6.74;100.00;98453.08;109212;1255;60835;-72
2024/03/01 05:56:31;;;;;;;161.70;68.60;;;;;;;6.78;100.00;98456.21;109183;1255;65592;-71
2024/03/01 05:58:57;;;;;;;140.20;67.30;;;;;;;6.79;100.00;98455.27;109199;1255;60019;-71
2024/03/01 06:01:24;;;;;;;131.60;62.50;;;;;;;6.79;100.00;98457.20;109215;1255;59816;-71
2024/03/01 06:03:50;;;;;;;123.40;63.20;;;;;;;6.77;100.00;98457.84;109202;1255;66464;-71
2024/03/01 06:06:20;;;;;;;136.40;61.10;;;;;;;6.74;100.00;98452.04;109238;1256;60997;-72
2024/03/01 06:08:47;;;;;;;106.50;56.90;;;;;;;6.71;100.00;98445.49;109219;1255;65097;-71
2024/03/01 06:11:14;;;;;;;144.00;64.60;;;;;;;6.72;100.00;98436.42;109220;1255;59875;-70
2024/03/01 06:13:41;;;;;;;111.60;58.40;;;;;;;6.74;100.00;98432.78;109234;1255;59790;-70
2024/03/01 06:16:07;;;;;;;131.80;57.90;;;;;;;6.76;100.00;98425.96;109209;1256;66756;-70
2024/03/01 06:18:34;;;;;;;122.40;56.30;;;;;;;6.76;100.00;98415.92;109173;1256;61065;-72
2024/03/01 06:21:02;;;;;;;140.30;57.70;;;;;;;6.74;100.00;98405.58;109178;1255;64180;-72
2024/03/01 06:23:28;;;;;;;108.00;57.40;;;;;;;6.74;100.00;98409.45;109153;1256;60072;-72
2024/03/01 06:25:55;;;;;;;130.70;56.20;;;;;;;6.73;100.00;98408.84;109222;1255;59835;-72
2024/03/01 06:28:22;;;;;;;137.40;56.70;;;;;;;6.70;100.00;98405.11;109205;1255;66890;-70
2024/03/01 06:30:49;;;;;;;122.10;57.60;;;;;;;6.70;100.00;98401.22;109201;1255;61061;-70
2024/03/01 06:33:16;;;;;;;141.00;61.50;;;;;;;6.73;100.00;98399.98;109187;1255;65038;-71
2024/03/01 06:35:43;;;;;;;124.60;63.40;;;;;;;6.76;100.00;98400.55;109178;1255;59967;-71
2024/03/01 06:38:09;;;;;;;136.50;67.00;;;;;;;6.82;100.00;98406.38;109188;1255;60136;-71
2024/03/01 06:40:36;;;;;;;137.60;65.70;;;;;;;6.85;100.00;98410.22;109189;1255;67830;-70
2024/03/01 06:43:03;;;;;;;107.10;63.00;;;;;;;6.89;100.00;98419.52;109244;1256;60190;-70
2024/03/01 06:45:29;;;;;;;119.00;61.80;;;;;;;6.95;100.00;98420.18;109182;1256;64040;-71
2024/03/01 06:47:56;;;;;;;117.40;62.50;;;;;;;6.98;100.00;98423.19;109200;1255;59859;-71
2024/03/01 06:50:23;;;;;;;128.30;61.60;;;;;;;6.97;100.00;98427.35;109206;1255;59932;-71
2024/03/01 06:52:49;;;;;;;126.00;63.00;;;;;;;6.96;100.00;98427.17;109196;1255;68283;-70
2024/03/01 06:55:16;;;;;;;98.90;61.80;;;;;;;6.98;100.00;98428.51;109209;1255;61058;-71
2024/03/01 06:57:43;;;;;;;118.20;59.90;;;;;;;7.01;100.00;98425.15;109229;1255;64185;-72
2024/03/01 07:00:09;;;;;;;128.10;64.00;;;;;;;7.04;100.00;98415.94;109152;1255;59850;-72
2024/03/01 07:02:36;;;;;;;125.80;63.10;;;;;;;7.10;100.00;98418.96;109207;1255;59769;-71
2024/03/01 07:05:03;;;;;;;126.70;62.10;;;;;;;7.11;100.00;98423.10;109208;1255;67741;-70
2024/03/01 07:07:30;;;;;;;125.50;61.70;;;;;;;7.11;100.00;98422.08;109206;1255;61027;-72
2024/03/01 07:09:57;;;;;;;105.60;60.60;;;;;;;7.11;100.00;98423.66;109166;1255;65124;-72
2024/03/01 07:12:24;;;;;;;114.30;65.10;;;;;;;7.11;100.00;98425.80;109182;1255;59783;-72
2024/03/01 07:14:51;;;;;;;132.00;68.00;;;;;;;7.13;100.00;98419.09;109209;1255;60135;-72
2024/03/01 07:17:17;;;;;;;115.30;67.90;;;;;;;7.16;100.00;98410.39;109185;1256;68022;-72
2024/03/01 07:19:44;;;;;;;115.10;62.00;;;;;;;7.19;100.00;98413.73;109210;1255;61046;-72
2024/03/01 07:22:11;;;;;;;110.10;64.90;;;;;;;7.22;100.00;98413.40;109208;1255;65429;-72
2024/03/01 07:24:37;;;;;;;112.40;64.20;;;;;;;7.24;100.00;98402.50;109208;1255;59803;-71
2024/03/01 07:27:04;;;;;;;108.10;61.30;;;;;;;7.28;100.00;98396.42;109211;1256;59860;-71
2024/03/01 07:29:30;;;;;;;104.70;62.30;;;;;;;7.32;100.00;98395.63;109001;1255;67173;-71
2024/03/01 07:31:57;;;;;;;107.80;66.30;;;;;;;7.37;100.00;98399.02;109213;1256;60011;-72
2024/03/01 07:34:24;;;;;;;111.60;66.80;;;;;;;7.42;100.00;98402.40;108979;1255;64081;-71
2024/03/01 07:36:50;;;;;;;119.00;66.40;;;;;;;7.48;100.00;98397.09;109200;1255;59944;-71
2024/03/01 07:39:17;;;;;;;133.70;70.10;;;;;;;7.46;100.00;98396.14;109208;1255;59652;-71
2024/03/01 07:41:44;;;;;;;141.70;69.40;;;;;;;7.42;100.00;98390.02;109222;1255;66866;-72
2024/03/01 07:44:10;;;;;;;136.90;66.20;;;;;;;7.44;100.00;98396.81;109194;1255;59865;-72
2024/03/01 07:46:39;;;;;;;140.80;74.50;;;;;;;7.46;100.00;98398.13;109182;1255;64035;-72
2024/03/01 07:49:06;;;;;;;141.80;72.90;;;;;;;7.50;100.00;98393.27;109178;1255;59866;-72
2024/03/01 07:51:32;;;;;;;127.60;65.10;;;;;;;7.59;100.00;98390.95;109207;1256;59834;-71
2024/03/01 07:53:59;;;;;;;139.60;61.20;;;;;;;7.62;100.00;98384.91;109212;1256;66863;-71
2024/03/01 07:56:26;;;;;;;150.60;61.70;;;;;;;7.62;100.00;98384.87;109224;1256;61284;-72
2024/03/01 07:59:02;;;;;;;147.00;64.30;;;;;;;7.61;100.00;98389.52;109186;1255;64997;-72
2024/03/01 08:01:29;;;;;;;143.00;65.90;;;;;;;7.63;100.00;98393.98;109190;1256;59899;-73
2024/03/01 08:03:56;;;;;;;127.20;65.80;;;;;;;7.63;100.00;98402.47;109014;1255;59859;-71
2024/03/01 08:06:22;;;;;;;117.50;62.60;;;;;;;7.66;100.00;98400.34;109210;1255;67465;-71
2024/03/01 08:08:49;;;;;;;112.60;64.30;;;;;;;7.71;100.00;98400.40;108985;1256;60992;-72
2024/03/01 08:11:37;;;;;;;127.70;69.00;;;;;;;7.77;100.00;98397.70;109201;1256;65335;-71
2024/03/01 08:14:07;;;;;;;109.40;67.80;;;;;;;7.82;100.00;98408.89;109185;1256;59787;-72
2024/03/01 08:16:33;;;;;;;111.30;72.30;;;;;;;7.88;100.00;98405.29;109213;1256;60139;-72
2024/03/01 08:19:00;;;;;;;111.90;66.10;;;;;;;7.95;100.00;98395.51;109212;1256;67821;-72
2024/03/01 08:21:27;;;;;;;108.30;63.40;;;;;;;8.00;100.00;98382.41;108974;1256;59846;-72
2024/03/01 08:23:53;;;;;;;95.40;59.90;;;;;;;7.99;100.00;98388.66;109188;1256;63997;-73
2024/03/01 08:26:24;;;;;;;89.90;59.20;;;;;;;7.98;100.00;98394.02;109170;1256;59836;-75
2024/03/01 08:28:52;;;;;;;105.30;64.20;;;;;;;7.97;100.00;98393.07;109209;1256;59913;-72
2024/03/01 08:31:25;;;;;;;91.00;56.90;;;;;;;7.98;100.00;98391.21;109195;1256;67839;-72
2024/03/01 08:34:05;;;;;;;101.90;62.00;;;;;;;8.03;100.00;98394.79;109218;1255;61530;-72
2024/03/01 08:36:32;;;;;;;;;;;;;;;8.04;100.00;98393.98;109209;1256;63687;-72
2024/03/01 08:39:10;;;;;;;104.70;63.10;;;;;;;8.03;100.00;98397.08;109192;1256;59840;-72
2024/03/01 08:41:38;;;;;;;113.80;71.70;;;;;;;8.04;100.00;98398.05;109193;1256;59840;-72
2024/03/01 08:44:28;;;;;;;102.00;63.20;;;;;;;8.08;100.00;98390.02;109208;1256;67892;-72
2024/03/01 08:46:55;;;;;;;109.20;64.00;;;;;;;8.17;100.00;98381.61;109199;1255;60052;-72
2024/03/01 08:49:30;;;;;;;103.60;65.10;;;;;;;8.26;100.00;98378.71;109186;1255;65038;-72
2024/03/01 08:51:57;;;;;;;102.80;64.40;;;;;;;8.34;100.00;98376.06;109153;1255;59939;-72
2024/03/01 08:54:26;;;;;;;97.30;62.30;;;;;;;8.43;100.00;98388.94;109165;1255;60105;-72
2024/03/01 08:57:04;;;;;;;93.10;60.80;;;;;;;8.51;100.00;98394.73;109223;1255;67037;-72
2024/03/01 08:59:47;;;;;;;95.70;59.50;;;;;;;8.61;100.00;98390.91;109226;1255;60053;-72
2024/03/01 09:02:45;;;;;;;104.60;64.70;;;;;;;8.72;100.00;98392.09;109191;1255;64010;-72
2024/03/01 09:05:13;;;;;;;103.30;61.50;;;;;;;8.89;100.00;98387.57;109153;1255;60687;-71
2024/03/01 09:07:40;;;;;;;99.10;61.80;;;;;;;9.07;100.00;98389.69;109225;1255;59756;-72
2024/03/01 09:10:14;;;;;;;98.20;63.30;;;;;;;9.17;100.00;98394.44;109178;1256;67789;-71
2024/03/01 09:12:44;;;;;;;97.30;61.00;;;;;;;9.26;100.00;98390.41;109185;1256;61085;-72
2024/03/01 09:15:13;;;;;;;104.30;64.40;;;;;;;9.25;100.00;98387.69;109166;1255;64161;-71
2024/03/01 09:17:41;;;;;;;101.00;65.10;;;;;;;9.21;100.00;98388.96;109166;1255;59782;-72
2024/03/01 09:20:26;;;;;;;104.50;66.80;;;;;;;9.25;100.00;98383.03;109180;1256;59811;-70
2024/03/01 09:22:53;;;;;;;105.90;63.70;;;;;;;9.28;100.00;98390.27;109190;1255;68099;-71
2024/03/01 09:25:46;;;;;;;106.00;66.10;;;;;;;9.28;100.00;98393.17;109159;1256;61156;-71
2024/03/01 09:28:14;;;;;;;103.90;65.50;;;;;;;9.24;100.00;98381.20;109171;1255;63990;-71
2024/03/01 09:30:44;;;;;;;107.60;67.70;;;;;;;9.20;100.00;98377.53;109165;1255;59927;-71
2024/03/01 09:33:15;;;;;;;97.40;65.50;;;;;;;9.19;100.00;98373.70;109184;1255;59923;-71
2024/03/01 09:35:42;;;;;;;102.40;66.00;;;;;;;9.24;100.00;98375.11;109174;1255;68225;-71
2024/03/01 09:38:11;;;;;;;105.10;66.90;;;;;;;9.36;100.00;98379.63;109110;1256;61082;-71
2024/03/01 09:41:16;;;;;;;111.60;68.80;;;;;;;9.55;100.00;98384.10;109133;1256;62764;-72
2024/03/01 09:44:29;;;;;;;111.20;73.30;;;;;;;9.78;100.00;98390.41;108769;1263;60061;-71
2024/03/01 09:47:24;;;;;;;113.70;76.60;;;;;;;10.00;100.00;98397.10;108329;1269;60048;-70
2024/03/01 09:50:10;;;;;;;104.80;72.10;;;;;;;10.19;100.00;98393.39;107551;1276;67943;-71
2024/03/01 09:53:02;;;;;;;105.10;69.80;;;;;;;10.27;100.00;98390.67;107563;1276;61157;-72
2024/03/01 09:55:38;;;;;;;101.80;70.30;;;;;;;10.38;100.00;98386.52;107479;1276;65035;-72
2024/03/01 09:58:49;;;;;;;102.60;71.90;;;;;;;10.46;100.00;98384.61;107625;1275;59749;-71
2024/03/01 10:01:26;;;;;;;103.70;70.80;;;;;;;10.46;100.00;98381.77;107700;1276;59824;-71
2024/03/01 10:04:08;;;;;;;92.90;66.40;;;;;;;10.42;100.00;98380.66;107718;1276;67953;-71
2024/03/01 10:06:56;;;;;;;104.80;70.90;;;;;;;10.39;100.00;98367.02;107732;1275;60630;-71
2024/03/01 10:09:48;;;;;;;103.40;70.30;;;;;;;10.42;100.00;98363.95;107714;1276;65135;-72
2024/03/01 10:12:49;;;;;;;104.70;70.80;;;;;;;10.60;100.00;98376.45;107704;1275;60054;-71
2024/03/01 10:15:18;;;;;;;99.10;67.00;;;;;;;10.77;100.00;98374.80;107744;1276;60338;-71
2024/03/01 10:18:22;;;;;;;95.90;69.30;;;;;;;10.86;100.00;98370.77;107745;1276;66984;-71
2024/03/01 10:21:00;;;;;;;106.20;71.90;;;;;;;10.87;100.00;98369.23;107981;1268;61477;-78
2024/03/01 10:23:47;;;;;;;104.70;74.80;;;;;;;10.87;100.00;98364.02;108587;1260;64887;-72
2024/03/01 10:26:27;;;;;;;105.50;74.50;;;;;;;10.93;100.00;98363.63;108952;1254;59833;-72
2024/03/01 10:29:38;;;;;;;95.10;66.70;;;;;;;11.01;100.00;98359.22;109192;1256;60147;-72
2024/03/01 10:32:37;;;;;;;88.60;65.70;;;;;;;11.02;100.00;98360.38;109023;1256;65595;-72
2024/03/01 10:35:11;;;;;;;89.90;66.50;;;;;;;10.99;100.00;98359.41;108776;1262;61444;-72
2024/03/01 10:38:25;;;;;;;87.90;63.50;;;;;;;11.03;100.00;98359.80;108752;1262;65001;-72
2024/03/01 10:41:13;;;;;;;91.70;64.30;;;;;;;11.07;100.00;98358.57;108392;1269;59874;-71
2024/03/01 10:43:56;;;;;;;89.70;63.50;;;;;;;11.07;100.00;98354.30;108421;1268;60820;-72
2024/03/01 10:46:36;;;;;;;83.40;62.60;;;;;;;11.05;100.00;98351.98;108398;1267;67900;-72
2024/03/01 10:49:21;;;;;;;89.90;64.30;;;;;;;10.95;100.00;98355.29;108377;1268;60775;-71
2024/03/01 10:51:56;;;;;;;88.40;65.50;;;;;;;10.91;100.00;98352.58;108394;1268;65437;-72
2024/03/01 10:54:27;;;;;;;93.30;68.90;;;;;;;10.92;100.00;98350.71;108396;1268;60240;-72
2024/03/01 10:56:56;;;;;;;91.30;64.60;;;;;;;10.92;100.00;98348.93;108418;1268;59975;-72
2024/03/01 10:59:44;;;;;;;93.50;69.20;;;;;;;10.93;100.00;98342.97;108386;1269;67772;-72
2024/03/01 11:02:25;;;;;;;90.60;68.00;;;;;;;10.91;100.00;98344.21;108414;1269;61394;-72
2024/03/01 11:05:04;;;;;;;91.90;67.30;;;;;;;10.87;100.00;98344.89;108408;1268;65157;-72
2024/03/01 11:08:02;;;;;;;96.40;69.90;;;;;;;10.82;100.00;98344.42;108384;1268;59806;-72
2024/03/01 11:11:36;;;;;;;98.40;71.50;;;;;;;10.79;100.00;98340.16;108444;1270;59875;-71
2024/03/01 11:14:07;;;;;;;91.10;66.40;;;;;;;10.75;100.00;98339.79;108519;1266;66824;-72
2024/03/01 11:16:37;;;;;;;96.20;70.70;;;;;;;10.62;100.00;98339.55;108515;1267;61213;-71